sensor_id;sensor_type;location;lat;lon;timestamp;P1;durP1;ratioP1;P2;durP2;ratioP2
68803;SDS011;55787;52.678;13.314;2022-07-01T00:00:06;16.38;;;9.85;;
68803;SDS011;55787;52.678;13.314;2022-07-01T00:02:33;14.10;;;9.02;;
68803;SDS011;55787;52.678;13.314;2022-07-01T00:04:59;14.52;;;9.60;;
68803;SDS011;55787;52.678;13.314;2022-07-01T00:07:26;16.00;;;10.07;;
68803;SDS011;55787;52.678;13.314;2022-07-01T00:09:52;17.53;;;9.73;;
68803;SDS011;55787;52.678;13.314;2022-07-01T00:12:19;15.32;;;10.02;;
68803;SDS011;55787;52.678;13.314;2022-07-01T00:14:45;15.82;;;10.00;;
68803;SDS011;55787;52.678;13.314;2022-07-01T00:17:12;15.63;;;10.13;;
68803;SDS011;55787;52.678;13.314;2022-07-01T00:19:39;15.70;;;9.95;;
68803;SDS011;55787;52.678;13.314;2022-07-01T00:22:06;17.17;;;10.35;;
68803;SDS011;55787;52.678;13.314;2022-07-01T00:24:33;15.82;;;10.00;;
68803;SDS011;55787;52.678;13.314;2022-07-01T00:26:59;15.38;;;9.45;;
68803;SDS011;55787;52.678;13.314;2022-07-01T00:29:26;16.75;;;10.10;;
68803;SDS011;55787;52.678;13.314;2022-07-01T00:31:52;15.02;;;10.05;;
68803;SDS011;55787;52.678;13.314;2022-07-01T00:34:19;15.10;;;10.37;;
68803;SDS011;55787;52.678;13.314;2022-07-01T00:36:45;14.73;;;9.43;;
68803;SDS011;55787;52.678;13.314;2022-07-01T00:39:12;15.98;;;10.07;;
68803;SDS011;55787;52.678;13.314;2022-07-01T00:41:38;16.73;;;10.40;;
68803;SDS011;55787;52.678;13.314;2022-07-01T00:44:05;15.68;;;10.05;;
68803;SDS011;55787;52.678;13.314;2022-07-01T00:46:31;16.35;;;10.35;;
68803;SDS011;55787;52.678;13.314;2022-07-01T00:48:58;16.40;;;10.10;;
68803;SDS011;55787;52.678;13.314;2022-07-01T00:51:26;16.88;;;10.35;;
68803;SDS011;55787;52.678;13.314;2022-07-01T00:53:54;14.65;;;9.73;;
68803;SDS011;55787;52.678;13.314;2022-07-01T00:56:24;16.17;;;10.15;;
68803;SDS011;55787;52.678;13.314;2022-07-01T00:58:51;16.30;;;10.27;;
68803;SDS011;55787;52.678;13.314;2022-07-01T01:01:17;16.05;;;10.43;;
68803;SDS011;55787;52.678;13.314;2022-07-01T01:03:45;16.63;;;11.07;;
68803;SDS011;55787;52.678;13.314;2022-07-01T01:06:12;17.13;;;10.93;;
68803;SDS011;55787;52.678;13.314;2022-07-01T01:08:38;17.25;;;10.82;;
68803;SDS011;55787;52.678;13.314;2022-07-01T01:11:06;16.80;;;11.03;;
68803;SDS011;55787;52.678;13.314;2022-07-01T01:13:33;17.77;;;10.95;;
68803;SDS011;55787;52.678;13.314;2022-07-01T01:15:59;17.17;;;11.15;;
68803;SDS011;55787;52.678;13.314;2022-07-01T01:18:26;17.42;;;11.13;;
68803;SDS011;55787;52.678;13.314;2022-07-01T01:20:53;18.13;;;11.27;;
68803;SDS011;55787;52.678;13.314;2022-07-01T01:23:20;18.20;;;11.32;;
68803;SDS011;55787;52.678;13.314;2022-07-01T01:25:47;18.25;;;11.48;;
68803;SDS011;55787;52.678;13.314;2022-07-01T01:28:14;17.50;;;10.88;;
68803;SDS011;55787;52.678;13.314;2022-07-01T01:30:41;20.40;;;11.50;;
68803;SDS011;55787;52.678;13.314;2022-07-01T01:33:07;16.92;;;10.88;;
68803;SDS011;55787;52.678;13.314;2022-07-01T01:35:34;18.75;;;11.60;;
68803;SDS011;55787;52.678;13.314;2022-07-01T01:38:01;19.05;;;11.85;;
68803;SDS011;55787;52.678;13.314;2022-07-01T01:40:27;19.63;;;11.65;;
68803;SDS011;55787;52.678;13.314;2022-07-01T01:42:54;19.85;;;11.95;;
68803;SDS011;55787;52.678;13.314;2022-07-01T01:45:20;18.33;;;12.20;;
68803;SDS011;55787;52.678;13.314;2022-07-01T01:47:48;18.27;;;11.40;;
68803;SDS011;55787;52.678;13.314;2022-07-01T01:50:14;18.15;;;11.60;;
68803;SDS011;55787;52.678;13.314;2022-07-01T01:52:41;18.98;;;12.07;;
68803;SDS011;55787;52.678;13.314;2022-07-01T01:55:09;18.50;;;12.35;;
68803;SDS011;55787;52.678;13.314;2022-07-01T01:57:36;19.48;;;12.68;;
68803;SDS011;55787;52.678;13.314;2022-07-01T02:00:04;19.77;;;12.63;;
68803;SDS011;55787;52.678;13.314;2022-07-01T02:02:31;19.55;;;12.80;;
68803;SDS011;55787;52.678;13.314;2022-07-01T02:04:59;20.55;;;12.90;;
68803;SDS011;55787;52.678;13.314;2022-07-01T02:07:26;19.23;;;12.73;;
68803;SDS011;55787;52.678;13.314;2022-07-01T02:09:52;21.23;;;12.70;;
68803;SDS011;55787;52.678;13.314;2022-07-01T02:12:19;21.08;;;13.23;;
68803;SDS011;55787;52.678;13.314;2022-07-01T02:14:45;20.20;;;13.07;;
68803;SDS011;55787;52.678;13.314;2022-07-01T02:17:12;22.08;;;13.55;;
68803;SDS011;55787;52.678;13.314;2022-07-01T02:19:38;20.17;;;12.45;;
68803;SDS011;55787;52.678;13.314;2022-07-01T02:22:05;20.95;;;12.65;;
68803;SDS011;55787;52.678;13.314;2022-07-01T02:24:31;20.02;;;12.43;;
68803;SDS011;55787;52.678;13.314;2022-07-01T02:26:57;21.92;;;14.02;;
68803;SDS011;55787;52.678;13.314;2022-07-01T02:29:24;21.80;;;14.10;;
68803;SDS011;55787;52.678;13.314;2022-07-01T02:31:51;22.40;;;13.02;;
68803;SDS011;55787;52.678;13.314;2022-07-01T02:34:17;23.00;;;13.82;;
68803;SDS011;55787;52.678;13.314;2022-07-01T02:36:44;23.40;;;13.40;;
68803;SDS011;55787;52.678;13.314;2022-07-01T02:39:10;20.13;;;13.18;;
68803;SDS011;55787;52.678;13.314;2022-07-01T02:41:36;21.42;;;13.68;;
68803;SDS011;55787;52.678;13.314;2022-07-01T02:44:23;22.10;;;14.48;;
68803;SDS011;55787;52.678;13.314;2022-07-01T02:46:49;26.15;;;15.52;;
68803;SDS011;55787;52.678;13.314;2022-07-01T02:49:16;22.25;;;13.88;;
68803;SDS011;55787;52.678;13.314;2022-07-01T02:51:42;24.13;;;15.07;;
68803;SDS011;55787;52.678;13.314;2022-07-01T02:54:09;24.58;;;14.43;;
68803;SDS011;55787;52.678;13.314;2022-07-01T02:56:35;23.23;;;13.90;;
68803;SDS011;55787;52.678;13.314;2022-07-01T02:59:02;22.75;;;14.35;;
68803;SDS011;55787;52.678;13.314;2022-07-01T03:01:29;23.17;;;15.02;;
68803;SDS011;55787;52.678;13.314;2022-07-01T03:03:55;24.42;;;15.07;;
68803;SDS011;55787;52.678;13.314;2022-07-01T03:06:22;22.20;;;14.43;;
68803;SDS011;55787;52.678;13.314;2022-07-01T03:08:48;22.35;;;14.27;;
68803;SDS011;55787;52.678;13.314;2022-07-01T03:11:14;23.73;;;14.75;;
68803;SDS011;55787;52.678;13.314;2022-07-01T03:13:41;25.08;;;15.00;;
68803;SDS011;55787;52.678;13.314;2022-07-01T03:16:07;24.38;;;14.60;;
68803;SDS011;55787;52.678;13.314;2022-07-01T03:18:34;24.33;;;15.40;;
68803;SDS011;55787;52.678;13.314;2022-07-01T03:21:00;28.17;;;16.08;;
68803;SDS011;55787;52.678;13.314;2022-07-01T03:23:27;24.92;;;14.63;;
68803;SDS011;55787;52.678;13.314;2022-07-01T03:25:53;24.55;;;15.55;;
68803;SDS011;55787;52.678;13.314;2022-07-01T03:28:20;25.20;;;15.27;;
68803;SDS011;55787;52.678;13.314;2022-07-01T03:30:47;25.70;;;15.25;;
68803;SDS011;55787;52.678;13.314;2022-07-01T03:33:13;23.70;;;15.52;;
68803;SDS011;55787;52.678;13.314;2022-07-01T03:35:40;23.42;;;15.05;;
68803;SDS011;55787;52.678;13.314;2022-07-01T03:38:06;24.88;;;15.82;;
68803;SDS011;55787;52.678;13.314;2022-07-01T03:40:34;25.60;;;15.80;;
68803;SDS011;55787;52.678;13.314;2022-07-01T03:43:00;27.42;;;15.68;;
68803;SDS011;55787;52.678;13.314;2022-07-01T03:45:27;25.92;;;15.20;;
68803;SDS011;55787;52.678;13.314;2022-07-01T03:47:54;27.33;;;15.85;;
68803;SDS011;55787;52.678;13.314;2022-07-01T03:50:22;27.23;;;15.90;;
68803;SDS011;55787;52.678;13.314;2022-07-01T03:52:49;25.52;;;15.60;;
68803;SDS011;55787;52.678;13.314;2022-07-01T03:55:36;25.77;;;16.13;;
68803;SDS011;55787;52.678;13.314;2022-07-01T03:58:03;28.20;;;16.58;;
68803;SDS011;55787;52.678;13.314;2022-07-01T04:00:33;26.42;;;16.00;;
68803;SDS011;55787;52.678;13.314;2022-07-01T04:03:02;24.25;;;15.32;;
68803;SDS011;55787;52.678;13.314;2022-07-01T04:05:33;24.95;;;15.55;;
68803;SDS011;55787;52.678;13.314;2022-07-01T04:08:02;28.33;;;16.30;;
68803;SDS011;55787;52.678;13.314;2022-07-01T04:10:30;27.95;;;16.05;;
68803;SDS011;55787;52.678;13.314;2022-07-01T04:13:02;26.15;;;15.93;;
68803;SDS011;55787;52.678;13.314;2022-07-01T04:15:49;25.15;;;15.07;;
68803;SDS011;55787;52.678;13.314;2022-07-01T04:18:16;28.40;;;16.13;;
68803;SDS011;55787;52.678;13.314;2022-07-01T04:20:42;25.80;;;16.42;;
68803;SDS011;55787;52.678;13.314;2022-07-01T04:23:29;24.70;;;15.27;;
68803;SDS011;55787;52.678;13.314;2022-07-01T04:25:55;27.10;;;16.75;;
68803;SDS011;55787;52.678;13.314;2022-07-01T04:28:42;25.75;;;15.77;;
68803;SDS011;55787;52.678;13.314;2022-07-01T04:31:08;26.92;;;16.80;;
68803;SDS011;55787;52.678;13.314;2022-07-01T04:33:35;28.38;;;17.15;;
68803;SDS011;55787;52.678;13.314;2022-07-01T04:36:02;28.38;;;17.38;;
68803;SDS011;55787;52.678;13.314;2022-07-01T04:38:29;27.92;;;16.20;;
68803;SDS011;55787;52.678;13.314;2022-07-01T04:40:55;27.30;;;16.88;;
68803;SDS011;55787;52.678;13.314;2022-07-01T04:43:40;26.67;;;16.50;;
68803;SDS011;55787;52.678;13.314;2022-07-01T04:46:07;26.65;;;15.75;;
68803;SDS011;55787;52.678;13.314;2022-07-01T04:48:33;27.00;;;16.65;;
68803;SDS011;55787;52.678;13.314;2022-07-01T04:51:00;25.67;;;16.23;;
68803;SDS011;55787;52.678;13.314;2022-07-01T04:53:30;26.42;;;16.73;;
68803;SDS011;55787;52.678;13.314;2022-07-01T04:55:57;25.65;;;16.55;;
68803;SDS011;55787;52.678;13.314;2022-07-01T04:58:23;24.75;;;16.20;;
68803;SDS011;55787;52.678;13.314;2022-07-01T05:00:50;26.88;;;16.02;;
68803;SDS011;55787;52.678;13.314;2022-07-01T05:03:17;26.80;;;16.58;;
68803;SDS011;55787;52.678;13.314;2022-07-01T05:05:44;25.60;;;15.48;;
68803;SDS011;55787;52.678;13.314;2022-07-01T05:08:10;25.50;;;16.73;;
68803;SDS011;55787;52.678;13.314;2022-07-01T05:10:37;26.65;;;15.80;;
68803;SDS011;55787;52.678;13.314;2022-07-01T05:13:03;24.17;;;15.23;;
68803;SDS011;55787;52.678;13.314;2022-07-01T05:15:30;25.73;;;16.13;;
68803;SDS011;55787;52.678;13.314;2022-07-01T05:17:56;24.60;;;16.33;;
68803;SDS011;55787;52.678;13.314;2022-07-01T05:20:41;27.65;;;16.27;;
68803;SDS011;55787;52.678;13.314;2022-07-01T05:23:26;25.35;;;15.73;;
68803;SDS011;55787;52.678;13.314;2022-07-01T05:25:52;25.42;;;16.38;;
68803;SDS011;55787;52.678;13.314;2022-07-01T05:28:19;22.75;;;14.95;;
68803;SDS011;55787;52.678;13.314;2022-07-01T05:30:45;21.90;;;14.07;;
68803;SDS011;55787;52.678;13.314;2022-07-01T05:33:12;25.08;;;14.82;;
68803;SDS011;55787;52.678;13.314;2022-07-01T05:35:38;22.98;;;14.98;;
68803;SDS011;55787;52.678;13.314;2022-07-01T05:38:05;23.90;;;14.95;;
68803;SDS011;55787;52.678;13.314;2022-07-01T05:40:31;22.25;;;15.13;;
68803;SDS011;55787;52.678;13.314;2022-07-01T05:42:58;21.80;;;14.15;;
68803;SDS011;55787;52.678;13.314;2022-07-01T05:45:24;21.58;;;14.88;;
68803;SDS011;55787;52.678;13.314;2022-07-01T05:47:51;22.48;;;14.90;;
68803;SDS011;55787;52.678;13.314;2022-07-01T05:50:17;24.42;;;14.95;;
68803;SDS011;55787;52.678;13.314;2022-07-01T05:52:44;22.33;;;14.82;;
68803;SDS011;55787;52.678;13.314;2022-07-01T05:55:12;22.75;;;14.77;;
68803;SDS011;55787;52.678;13.314;2022-07-01T05:57:38;22.50;;;14.85;;
68803;SDS011;55787;52.678;13.314;2022-07-01T06:00:05;22.52;;;15.88;;
68803;SDS011;55787;52.678;13.314;2022-07-01T06:02:32;23.52;;;14.50;;
68803;SDS011;55787;52.678;13.314;2022-07-01T06:04:58;23.42;;;14.98;;
68803;SDS011;55787;52.678;13.314;2022-07-01T06:07:26;20.88;;;14.80;;
68803;SDS011;55787;52.678;13.314;2022-07-01T06:09:52;21.67;;;14.95;;
68803;SDS011;55787;52.678;13.314;2022-07-01T06:12:19;23.13;;;14.57;;
68803;SDS011;55787;52.678;13.314;2022-07-01T06:14:45;22.50;;;14.43;;
68803;SDS011;55787;52.678;13.314;2022-07-01T06:17:12;22.65;;;15.27;;
68803;SDS011;55787;52.678;13.314;2022-07-01T06:19:39;21.17;;;15.03;;
68803;SDS011;55787;52.678;13.314;2022-07-01T06:22:06;22.13;;;15.32;;
68803;SDS011;55787;52.678;13.314;2022-07-01T06:24:32;21.00;;;14.75;;
68803;SDS011;55787;52.678;13.314;2022-07-01T06:26:59;21.23;;;14.93;;
68803;SDS011;55787;52.678;13.314;2022-07-01T06:29:26;20.65;;;15.00;;
68803;SDS011;55787;52.678;13.314;2022-07-01T06:31:56;21.95;;;14.57;;
68803;SDS011;55787;52.678;13.314;2022-07-01T06:34:24;23.10;;;15.48;;
68803;SDS011;55787;52.678;13.314;2022-07-01T06:36:50;21.77;;;14.82;;
68803;SDS011;55787;52.678;13.314;2022-07-01T06:39:17;21.63;;;14.43;;
68803;SDS011;55787;52.678;13.314;2022-07-01T06:41:44;22.30;;;14.35;;
68803;SDS011;55787;52.678;13.314;2022-07-01T06:44:11;25.98;;;15.38;;
68803;SDS011;55787;52.678;13.314;2022-07-01T06:46:38;22.88;;;15.65;;
68803;SDS011;55787;52.678;13.314;2022-07-01T06:49:05;22.48;;;15.45;;
68803;SDS011;55787;52.678;13.314;2022-07-01T06:51:31;22.95;;;15.48;;
68803;SDS011;55787;52.678;13.314;2022-07-01T06:53:58;21.27;;;14.93;;
68803;SDS011;55787;52.678;13.314;2022-07-01T06:56:24;22.35;;;15.20;;
68803;SDS011;55787;52.678;13.314;2022-07-01T06:58:51;19.65;;;14.82;;
68803;SDS011;55787;52.678;13.314;2022-07-01T07:01:17;21.45;;;15.43;;
68803;SDS011;55787;52.678;13.314;2022-07-01T07:03:44;22.67;;;15.77;;
68803;SDS011;55787;52.678;13.314;2022-07-01T07:06:11;21.60;;;15.35;;
68803;SDS011;55787;52.678;13.314;2022-07-01T07:08:37;19.63;;;14.38;;
68803;SDS011;55787;52.678;13.314;2022-07-01T07:11:04;21.75;;;14.55;;
68803;SDS011;55787;52.678;13.314;2022-07-01T07:13:31;19.27;;;13.07;;
68803;SDS011;55787;52.678;13.314;2022-07-01T07:15:58;18.65;;;12.93;;
68803;SDS011;55787;52.678;13.314;2022-07-01T07:18:24;18.30;;;12.13;;
68803;SDS011;55787;52.678;13.314;2022-07-01T07:20:51;18.93;;;12.20;;
68803;SDS011;55787;52.678;13.314;2022-07-01T07:23:24;16.00;;;12.30;;
68803;SDS011;55787;52.678;13.314;2022-07-01T07:25:51;16.75;;;12.07;;
68803;SDS011;55787;52.678;13.314;2022-07-01T07:28:17;18.80;;;12.43;;
68803;SDS011;55787;52.678;13.314;2022-07-01T07:30:44;15.85;;;12.57;;
68803;SDS011;55787;52.678;13.314;2022-07-01T07:33:10;17.63;;;12.10;;
68803;SDS011;55787;52.678;13.314;2022-07-01T07:35:37;17.38;;;11.90;;
68803;SDS011;55787;52.678;13.314;2022-07-01T07:38:04;16.42;;;11.07;;
68803;SDS011;55787;52.678;13.314;2022-07-01T07:40:33;15.88;;;10.85;;
68803;SDS011;55787;52.678;13.314;2022-07-01T07:43:00;15.85;;;10.90;;
68803;SDS011;55787;52.678;13.314;2022-07-01T07:45:29;15.35;;;10.85;;
68803;SDS011;55787;52.678;13.314;2022-07-01T07:47:56;14.70;;;11.13;;
68803;SDS011;55787;52.678;13.314;2022-07-01T07:50:22;14.48;;;11.27;;
68803;SDS011;55787;52.678;13.314;2022-07-01T07:52:49;14.10;;;10.50;;
68803;SDS011;55787;52.678;13.314;2022-07-01T07:55:16;15.68;;;11.73;;
68803;SDS011;55787;52.678;13.314;2022-07-01T07:57:43;15.35;;;10.80;;
68803;SDS011;55787;52.678;13.314;2022-07-01T08:00:10;14.63;;;10.50;;
68803;SDS011;55787;52.678;13.314;2022-07-01T08:02:38;15.00;;;10.25;;
68803;SDS011;55787;52.678;13.314;2022-07-01T08:05:06;15.27;;;10.57;;
68803;SDS011;55787;52.678;13.314;2022-07-01T08:07:35;14.73;;;9.93;;
68803;SDS011;55787;52.678;13.314;2022-07-01T08:10:03;14.13;;;10.15;;
68803;SDS011;55787;52.678;13.314;2022-07-01T08:12:31;14.88;;;10.15;;
68803;SDS011;55787;52.678;13.314;2022-07-01T08:14:57;13.20;;;9.20;;
68803;SDS011;55787;52.678;13.314;2022-07-01T08:17:24;14.10;;;9.32;;
68803;SDS011;55787;52.678;13.314;2022-07-01T08:19:51;12.00;;;8.45;;
68803;SDS011;55787;52.678;13.314;2022-07-01T08:22:18;12.15;;;9.02;;
68803;SDS011;55787;52.678;13.314;2022-07-01T08:24:45;13.15;;;8.55;;
68803;SDS011;55787;52.678;13.314;2022-07-01T08:27:12;13.13;;;8.70;;
68803;SDS011;55787;52.678;13.314;2022-07-01T08:29:39;13.27;;;8.88;;
68803;SDS011;55787;52.678;13.314;2022-07-01T08:32:06;12.43;;;9.15;;
68803;SDS011;55787;52.678;13.314;2022-07-01T08:34:33;14.50;;;9.53;;
68803;SDS011;55787;52.678;13.314;2022-07-01T08:37:02;12.60;;;8.82;;
68803;SDS011;55787;52.678;13.314;2022-07-01T08:39:29;15.38;;;9.32;;
68803;SDS011;55787;52.678;13.314;2022-07-01T08:41:56;14.02;;;9.77;;
68803;SDS011;55787;52.678;13.314;2022-07-01T08:44:23;17.65;;;10.60;;
68803;SDS011;55787;52.678;13.314;2022-07-01T08:46:51;14.50;;;10.75;;
68803;SDS011;55787;52.678;13.314;2022-07-01T08:49:18;14.15;;;10.30;;
68803;SDS011;55787;52.678;13.314;2022-07-01T08:51:44;13.35;;;10.23;;
68803;SDS011;55787;52.678;13.314;2022-07-01T08:54:11;15.13;;;10.60;;
68803;SDS011;55787;52.678;13.314;2022-07-01T08:56:37;15.45;;;11.23;;
68803;SDS011;55787;52.678;13.314;2022-07-01T08:59:12;16.45;;;11.40;;
68803;SDS011;55787;52.678;13.314;2022-07-01T09:01:39;15.43;;;11.45;;
68803;SDS011;55787;52.678;13.314;2022-07-01T09:04:13;14.32;;;11.02;;
68803;SDS011;55787;52.678;13.314;2022-07-01T09:06:45;15.13;;;12.55;;
68803;SDS011;55787;52.678;13.314;2022-07-01T09:09:16;14.82;;;11.35;;
68803;SDS011;55787;52.678;13.314;2022-07-01T09:14:13;14.13;;;11.68;;
68803;SDS011;55787;52.678;13.314;2022-07-01T09:16:45;13.27;;;11.10;;
68803;SDS011;55787;52.678;13.314;2022-07-01T09:19:14;13.90;;;10.73;;
68803;SDS011;55787;52.678;13.314;2022-07-01T09:21:41;14.68;;;10.10;;
68803;SDS011;55787;52.678;13.314;2022-07-01T09:24:30;13.32;;;10.15;;
68803;SDS011;55787;52.678;13.314;2022-07-01T09:26:58;11.65;;;8.90;;
68803;SDS011;55787;52.678;13.314;2022-07-01T09:29:27;12.13;;;8.50;;
68803;SDS011;55787;52.678;13.314;2022-07-01T09:31:58;12.18;;;7.57;;
68803;SDS011;55787;52.678;13.314;2022-07-01T09:34:25;10.00;;;6.55;;
68803;SDS011;55787;52.678;13.314;2022-07-01T09:36:56;12.30;;;6.28;;
68803;SDS011;55787;52.678;13.314;2022-07-01T09:39:22;11.57;;;5.30;;
68803;SDS011;55787;52.678;13.314;2022-07-01T09:42:04;8.80;;;3.35;;
68803;SDS011;55787;52.678;13.314;2022-07-01T09:44:31;9.63;;;3.33;;
68803;SDS011;55787;52.678;13.314;2022-07-01T09:46:58;8.45;;;3.15;;
68803;SDS011;55787;52.678;13.314;2022-07-01T09:49:27;7.18;;;2.67;;
68803;SDS011;55787;52.678;13.314;2022-07-01T09:51:54;7.68;;;2.45;;
68803;SDS011;55787;52.678;13.314;2022-07-01T09:54:20;7.38;;;2.30;;
68803;SDS011;55787;52.678;13.314;2022-07-01T09:56:47;6.55;;;2.30;;
68803;SDS011;55787;52.678;13.314;2022-07-01T09:59:16;7.05;;;2.03;;
68803;SDS011;55787;52.678;13.314;2022-07-01T10:01:43;6.40;;;1.70;;
68803;SDS011;55787;52.678;13.314;2022-07-01T10:04:10;5.50;;;1.50;;
68803;SDS011;55787;52.678;13.314;2022-07-01T10:06:52;5.30;;;1.20;;
68803;SDS011;55787;52.678;13.314;2022-07-01T10:09:43;7.65;;;1.30;;
68803;SDS011;55787;52.678;13.314;2022-07-01T10:14:45;7.22;;;1.23;;
68803;SDS011;55787;52.678;13.314;2022-07-01T10:20:08;6.22;;;2.13;;
68803;SDS011;55787;52.678;13.314;2022-07-01T10:22:37;6.32;;;1.70;;
68803;SDS011;55787;52.678;13.314;2022-07-01T10:36:04;6.35;;;2.40;;
68803;SDS011;55787;52.678;13.314;2022-07-01T10:38:34;9.05;;;2.70;;
68803;SDS011;55787;52.678;13.314;2022-07-01T10:41:01;6.53;;;2.38;;
68803;SDS011;55787;52.678;13.314;2022-07-01T10:43:36;6.65;;;2.47;;
68803;SDS011;55787;52.678;13.314;2022-07-01T10:46:03;6.40;;;2.45;;
68803;SDS011;55787;52.678;13.314;2022-07-01T10:48:31;7.15;;;2.30;;
68803;SDS011;55787;52.678;13.314;2022-07-01T10:50:59;6.03;;;1.80;;
68803;SDS011;55787;52.678;13.314;2022-07-01T10:53:44;6.53;;;2.07;;
68803;SDS011;55787;52.678;13.314;2022-07-01T10:56:23;5.97;;;2.20;;
68803;SDS011;55787;52.678;13.314;2022-07-01T10:59:04;6.03;;;1.95;;
68803;SDS011;55787;52.678;13.314;2022-07-01T11:01:30;6.10;;;1.75;;
68803;SDS011;55787;52.678;13.314;2022-07-01T11:03:57;6.00;;;1.70;;
68803;SDS011;55787;52.678;13.314;2022-07-01T11:06:24;5.15;;;1.38;;
68803;SDS011;55787;52.678;13.314;2022-07-01T11:08:51;5.38;;;1.23;;
68803;SDS011;55787;52.678;13.314;2022-07-01T11:11:17;5.30;;;1.20;;
68803;SDS011;55787;52.678;13.314;2022-07-01T11:13:45;5.40;;;1.50;;
68803;SDS011;55787;52.678;13.314;2022-07-01T11:16:12;5.00;;;0.93;;
68803;SDS011;55787;52.678;13.314;2022-07-01T11:18:41;6.27;;;1.10;;
68803;SDS011;55787;52.678;13.314;2022-07-01T11:21:08;5.32;;;1.10;;
68803;SDS011;55787;52.678;13.314;2022-07-01T11:23:35;5.43;;;0.93;;
68803;SDS011;55787;52.678;13.314;2022-07-01T11:26:06;6.28;;;1.10;;
68803;SDS011;55787;52.678;13.314;2022-07-01T11:28:38;5.85;;;0.80;;
68803;SDS011;55787;52.678;13.314;2022-07-01T11:31:05;4.70;;;0.75;;
68803;SDS011;55787;52.678;13.314;2022-07-01T11:33:32;5.80;;;0.73;;
68803;SDS011;55787;52.678;13.314;2022-07-01T11:35:59;4.40;;;0.60;;
68803;SDS011;55787;52.678;13.314;2022-07-01T11:38:45;4.43;;;0.63;;
68803;SDS011;55787;52.678;13.314;2022-07-01T11:41:30;4.18;;;0.70;;
68803;SDS011;55787;52.678;13.314;2022-07-01T11:43:56;5.15;;;0.65;;
68803;SDS011;55787;52.678;13.314;2022-07-01T11:46:23;5.28;;;0.90;;
68803;SDS011;55787;52.678;13.314;2022-07-01T11:48:50;5.15;;;1.02;;
68803;SDS011;55787;52.678;13.314;2022-07-01T11:51:18;5.03;;;0.90;;
68803;SDS011;55787;52.678;13.314;2022-07-01T11:53:48;4.32;;;0.80;;
68803;SDS011;55787;52.678;13.314;2022-07-01T11:56:27;5.87;;;0.90;;
68803;SDS011;55787;52.678;13.314;2022-07-01T11:59:02;5.10;;;0.98;;
68803;SDS011;55787;52.678;13.314;2022-07-01T12:01:29;5.18;;;1.00;;
68803;SDS011;55787;52.678;13.314;2022-07-01T12:03:58;4.20;;;0.90;;
68803;SDS011;55787;52.678;13.314;2022-07-01T12:06:26;5.68;;;1.10;;
68803;SDS011;55787;52.678;13.314;2022-07-01T12:08:54;6.30;;;1.55;;
68803;SDS011;55787;52.678;13.314;2022-07-01T12:11:23;5.70;;;1.20;;
68803;SDS011;55787;52.678;13.314;2022-07-01T12:13:51;5.03;;;0.80;;
68803;SDS011;55787;52.678;13.314;2022-07-01T12:16:18;5.55;;;1.10;;
68803;SDS011;55787;52.678;13.314;2022-07-01T12:21:22;5.32;;;1.27;;
68803;SDS011;55787;52.678;13.314;2022-07-01T12:24:05;5.32;;;1.20;;
68803;SDS011;55787;52.678;13.314;2022-07-01T12:26:32;9.20;;;2.13;;
68803;SDS011;55787;52.678;13.314;2022-07-01T12:28:59;5.85;;;2.08;;
68803;SDS011;55787;52.678;13.314;2022-07-01T12:31:26;7.53;;;1.80;;
68803;SDS011;55787;52.678;13.314;2022-07-01T12:33:52;8.18;;;2.25;;
68803;SDS011;55787;52.678;13.314;2022-07-01T12:36:19;7.35;;;2.22;;
68803;SDS011;55787;52.678;13.314;2022-07-01T12:38:45;7.68;;;2.20;;
68803;SDS011;55787;52.678;13.314;2022-07-01T12:41:28;6.47;;;2.33;;
68803;SDS011;55787;52.678;13.314;2022-07-01T12:44:23;7.72;;;2.88;;
68803;SDS011;55787;52.678;13.314;2022-07-01T12:46:50;7.15;;;2.50;;
68803;SDS011;55787;52.678;13.314;2022-07-01T12:49:18;6.75;;;3.00;;
68803;SDS011;55787;52.678;13.314;2022-07-01T12:51:48;6.88;;;2.78;;
68803;SDS011;55787;52.678;13.314;2022-07-01T12:54:31;6.97;;;2.75;;
68803;SDS011;55787;52.678;13.314;2022-07-01T12:57:04;7.15;;;3.10;;
68803;SDS011;55787;52.678;13.314;2022-07-01T12:59:31;7.00;;;2.80;;
68803;SDS011;55787;52.678;13.314;2022-07-01T13:01:57;6.55;;;2.85;;
68803;SDS011;55787;52.678;13.314;2022-07-01T13:04:27;7.05;;;2.83;;
68803;SDS011;55787;52.678;13.314;2022-07-01T13:06:54;7.72;;;2.97;;
68803;SDS011;55787;52.678;13.314;2022-07-01T13:09:21;7.97;;;3.00;;
68803;SDS011;55787;52.678;13.314;2022-07-01T13:11:47;7.28;;;2.75;;
68803;SDS011;55787;52.678;13.314;2022-07-01T13:14:14;7.35;;;3.28;;
68803;SDS011;55787;52.678;13.314;2022-07-01T13:16:40;6.97;;;3.00;;
68803;SDS011;55787;52.678;13.314;2022-07-01T13:19:07;7.43;;;2.72;;
68803;SDS011;55787;52.678;13.314;2022-07-01T13:21:34;7.75;;;3.28;;
68803;SDS011;55787;52.678;13.314;2022-07-01T13:24:01;9.02;;;3.35;;
68803;SDS011;55787;52.678;13.314;2022-07-01T13:26:48;7.57;;;3.20;;
68803;SDS011;55787;52.678;13.314;2022-07-01T13:29:14;9.07;;;3.35;;
68803;SDS011;55787;52.678;13.314;2022-07-01T13:31:40;7.18;;;3.10;;
68803;SDS011;55787;52.678;13.314;2022-07-01T13:34:07;8.07;;;3.10;;
68803;SDS011;55787;52.678;13.314;2022-07-01T13:36:33;8.18;;;3.10;;
68803;SDS011;55787;52.678;13.314;2022-07-01T13:39:00;7.45;;;3.10;;
68803;SDS011;55787;52.678;13.314;2022-07-01T13:41:26;8.02;;;3.28;;
68803;SDS011;55787;52.678;13.314;2022-07-01T13:43:53;7.63;;;3.10;;
68803;SDS011;55787;52.678;13.314;2022-07-01T13:46:19;7.57;;;3.28;;
68803;SDS011;55787;52.678;13.314;2022-07-01T13:48:46;8.15;;;3.20;;
68803;SDS011;55787;52.678;13.314;2022-07-01T13:51:13;7.20;;;3.13;;
68803;SDS011;55787;52.678;13.314;2022-07-01T13:53:39;7.95;;;3.30;;
68803;SDS011;55787;52.678;13.314;2022-07-01T13:56:06;7.78;;;3.20;;
68803;SDS011;55787;52.678;13.314;2022-07-01T13:58:32;6.95;;;2.90;;
68803;SDS011;55787;52.678;13.314;2022-07-01T14:00:59;7.40;;;2.85;;
68803;SDS011;55787;52.678;13.314;2022-07-01T14:03:25;6.72;;;2.83;;
68803;SDS011;55787;52.678;13.314;2022-07-01T14:05:52;7.72;;;3.00;;
68803;SDS011;55787;52.678;13.314;2022-07-01T14:08:19;7.05;;;2.92;;
68803;SDS011;55787;52.678;13.314;2022-07-01T14:10:46;6.80;;;2.88;;
68803;SDS011;55787;52.678;13.314;2022-07-01T14:13:13;8.18;;;2.85;;
68803;SDS011;55787;52.678;13.314;2022-07-01T14:15:39;7.25;;;2.65;;
68803;SDS011;55787;52.678;13.314;2022-07-01T14:18:06;6.82;;;3.00;;
68803;SDS011;55787;52.678;13.314;2022-07-01T14:20:32;6.45;;;2.45;;
68803;SDS011;55787;52.678;13.314;2022-07-01T14:22:59;6.57;;;2.80;;
68803;SDS011;55787;52.678;13.314;2022-07-01T14:25:26;6.90;;;2.83;;
68803;SDS011;55787;52.678;13.314;2022-07-01T14:27:52;8.25;;;2.85;;
68803;SDS011;55787;52.678;13.314;2022-07-01T14:30:18;6.80;;;2.58;;
68803;SDS011;55787;52.678;13.314;2022-07-01T14:32:45;6.90;;;3.00;;
68803;SDS011;55787;52.678;13.314;2022-07-01T14:35:11;8.57;;;3.13;;
68803;SDS011;55787;52.678;13.314;2022-07-01T14:37:38;6.82;;;2.53;;
68803;SDS011;55787;52.678;13.314;2022-07-01T14:40:06;6.88;;;2.90;;
68803;SDS011;55787;52.678;13.314;2022-07-01T14:42:32;7.30;;;3.20;;
68803;SDS011;55787;52.678;13.314;2022-07-01T14:45:00;7.07;;;3.08;;